Time;durP1;ratioP1;P1;durP2;ratioP2;P2;SDS_P1;SDS_P2;PMS_P1;PMS_P2;Temp;Humidity;BMP_temperature;BMP_pressure;BME280_temperature;BME280_humidity;BME280_pressure;Samples;Min_cycle;Max_cycle;Signal;HPM_P1;HPM_P2
2021/05/31 00:00:55;;;;;;;;;;;;;;;13.34;66.93;94944.53;5123716;28;19920;-77
2021/05/31 00:03:20;;;;;;;;;;;;;;;13.33;66.81;94940.34;5123311;28;19924;-78
2021/05/31 00:05:46;;;;;;;;;;;;;;;13.34;67.63;94934.91;5122064;28;19951;-78
2021/05/31 00:08:11;;;;;;;;;;;;;;;13.31;67.14;94942.44;5099608;22;19925;-78
2021/05/31 00:10:36;;;;;;;;;;;;;;;13.30;67.02;94933.81;5032280;28;19921;-79
2021/05/31 00:13:01;;;;;;;;;;;;;;;13.33;66.64;94922.84;5033517;28;19983;-78
2021/05/31 00:15:30;;;;;;;;;;;;;;;13.32;66.95;94928.34;5038153;28;19928;-78
2021/05/31 00:17:55;;;;;;;;;;;;;;;13.26;67.11;94924.88;5046398;28;19921;-78
2021/05/31 00:20:21;;;;;;;;;;;;;;;13.23;67.15;94932.44;5052013;28;20464;-78
2021/05/31 00:25:23;;;;;;;;;;;;;;;13.21;67.06;94930.06;5252853;22;19928;-78
2021/05/31 00:27:48;;;;;;;;;;;;;;;13.18;67.44;94926.13;5169572;22;19925;-78
2021/05/31 00:30:13;;;;;;;;;;;;;;;13.21;66.90;94930.84;5052826;28;20023;-79
2021/05/31 00:32:39;;;;;;;;;;;;;;;13.24;67.45;94923.56;5055888;28;19924;-78
2021/05/31 00:35:05;;;;;;;;;;;;;;;13.20;67.44;94926.66;5062087;28;20006;-79
2021/05/31 00:37:30;;;;;;;;;;;;;;;13.20;67.41;94918.03;5063299;28;19927;-80
2021/05/31 00:39:55;;;;;;;;;;;;;;;13.19;67.16;94919.88;5061633;28;19948;-79
2021/05/31 00:42:20;;;;;;;;;;;;;;;13.18;67.16;94914.91;5080539;28;19927;-80
2021/05/31 00:44:46;;;;;;;;;;;;;;;13.13;67.55;94912.19;5067101;28;19920;-79
2021/05/31 00:47:11;;;;;;;;;;;;;;;13.17;67.53;94911.44;5062003;28;19916;-79
2021/05/31 00:49:37;;;;;;;;;;;;;;;13.17;67.32;94910.66;5067132;28;19925;-78
2021/05/31 00:52:06;;;;;;;;;;;;;;;13.09;67.46;94908.47;5065874;28;19974;-78
2021/05/31 00:54:31;;;;;;;;;;;;;;;13.02;67.50;94906.06;5075862;28;19928;-78
2021/05/31 00:56:56;;;;;;;;;;;;;;;12.98;67.52;94904.97;5081307;28;19928;-78
2021/05/31 00:59:21;;;;;;;;;;;;;;;12.98;67.61;94906.78;5079693;28;19920;-77
2021/05/31 01:01:48;;;;;;;;;;;;;;;12.99;67.55;94906.53;5102129;28;20284;-77
2021/05/31 01:04:14;;;;;;;;;;;;;;;12.99;67.61;94901.31;5099008;28;19921;-76
2021/05/31 01:06:40;;;;;;;;;;;;;;;13.00;67.32;94902.09;5073888;28;19974;-79
2021/05/31 01:09:17;;;;;;;;;;;;;;;13.01;67.06;94894.03;5064537;28;19936;-80
2021/05/31 01:11:52;;;;;;;;;;;;;;;12.96;67.38;94891.38;5064746;28;19991;-80
2021/05/31 01:14:37;;;;;;;;;;;;;;;13.00;67.49;94891.66;5080515;28;19987;-79
2021/05/31 01:17:05;;;;;;;;;;;;;;;13.00;67.52;94892.44;5063674;28;19917;-80
2021/05/31 01:19:36;;;;;;;;;;;;;;;12.95;67.67;94891.63;5065521;28;19928;-81
2021/05/31 01:22:03;;;;;;;;;;;;;;;12.91;68.08;94894.72;5063329;28;19932;-78
2021/05/31 01:24:47;;;;;;;;;;;;;;;12.94;68.10;94888.22;5067144;28;20029;-80
2021/05/31 01:27:25;;;;;;;;;;;;;;;12.95;67.88;94879.34;5063612;28;19978;-80
2021/05/31 01:29:52;;;;;;;;;;;;;;;13.00;67.54;94887.22;5064508;28;19920;-80
2021/05/31 01:32:17;;;;;;;;;;;;;;;13.03;67.00;94881.53;5064411;28;20351;-80
2021/05/31 01:34:42;;;;;;;;;;;;;;;13.06;67.28;94880.25;5063740;28;19920;-80
2021/05/31 01:37:07;;;;;;;;;;;;;;;13.08;66.79;94880.81;5064480;28;19925;-80
2021/05/31 01:39:33;;;;;;;;;;;;;;;13.08;67.15;94881.59;5065909;28;19921;-80
2021/05/31 01:41:58;;;;;;;;;;;;;;;13.04;67.16;94883.13;5064042;28;19969;-81
2021/05/31 01:44:23;;;;;;;;;;;;;;;13.03;66.93;94868.50;5064164;28;19970;-80
2021/05/31 01:46:49;;;;;;;;;;;;;;;13.07;67.07;94872.19;5065514;28;19920;-81
2021/05/31 01:49:14;;;;;;;;;;;;;;;13.05;66.80;94879.47;5061541;28;19991;-80
2021/05/31 01:51:40;;;;;;;;;;;;;;;13.06;66.80;94865.38;5092258;22;20001;-80
2021/05/31 01:54:05;;;;;;;;;;;;;;;13.09;66.39;94870.13;5063007;28;19920;-81
2021/05/31 01:56:31;;;;;;;;;;;;;;;13.09;67.10;94864.09;5062715;28;19924;-80
2021/05/31 01:58:56;;;;;;;;;;;;;;;13.07;67.73;94866.97;5061316;28;19921;-79
2021/05/31 02:01:21;;;;;;;;;;;;;;;13.05;68.34;94863.03;5106279;22;19929;-79
2021/05/31 02:03:46;;;;;;;;;;;;;;;13.12;67.75;94859.16;5076556;28;19971;-79
2021/05/31 02:06:12;;;;;;;;;;;;;;;13.17;68.31;94858.44;5084281;28;19924;-79
2021/05/31 02:08:37;;;;;;;;;;;;;;;13.15;67.92;94853.44;5085514;28;20311;-78
2021/05/31 02:11:06;;;;;;;;;;;;;;;13.16;68.20;94844.59;5084534;28;19950;-78
2021/05/31 02:13:32;;;;;;;;;;;;;;;13.16;68.83;94849.81;5117091;22;19939;-78
2021/05/31 02:16:01;;;;;;;;;;;;;;;13.21;68.15;94851.72;5080519;28;19920;-77
2021/05/31 02:18:26;;;;;;;;;;;;;;;13.24;67.37;94853.06;5095262;22;19948;-78
2021/05/31 02:20:53;;;;;;;;;;;;;;;13.24;67.08;94855.66;5085275;28;19920;-78
2021/05/31 02:23:18;;;;;;;;;;;;;;;13.25;67.02;94852.03;5086345;28;19924;-78
2021/05/31 02:25:44;;;;;;;;;;;;;;;13.27;66.91;94849.94;5070994;28;19924;-78
2021/05/31 02:28:09;;;;;;;;;;;;;;;13.29;66.51;94847.88;5073481;28;19924;-78
2021/05/31 02:30:34;;;;;;;;;;;;;;;13.29;65.96;94847.88;5072730;28;20373;-78
2021/05/31 02:33:00;;;;;;;;;;;;;;;13.27;65.88;94842.09;5073627;28;19932;-77
2021/05/31 02:35:27;;;;;;;;;;;;;;;13.29;66.13;94842.66;5085707;22;20104;-78
2021/05/31 02:37:58;;;;;;;;;;;;;;;13.29;66.01;94847.88;5057457;28;19933;-78
2021/05/31 02:40:23;;;;;;;;;;;;;;;13.19;66.56;94849.38;5062519;28;20011;-78
2021/05/31 02:42:50;;;;;;;;;;;;;;;13.23;66.27;94848.88;5100242;22;20352;-77
2021/05/31 02:45:16;;;;;;;;;;;;;;;13.24;66.55;94846.00;5082893;28;19924;-78
2021/05/31 02:50:16;;;;;;;;;;;;;;;13.26;66.16;94849.16;5373894;22;19932;-77
2021/05/31 02:52:50;;;;;;;;;;;;;;;13.21;66.12;94846.50;5073406;28;19925;-78
2021/05/31 02:55:16;;;;;;;;;;;;;;;13.20;65.91;94843.09;5080631;28;19916;-77
2021/05/31 02:57:41;;;;;;;;;;;;;;;13.19;65.73;94851.97;5079450;28;19921;-78
2021/05/31 03:00:08;;;;;;;;;;;;;;;13.14;66.04;94845.88;5082231;28;19988;-77
2021/05/31 03:02:33;;;;;;;;;;;;;;;13.07;66.34;94846.06;5063084;28;20388;-76
2021/05/31 03:04:59;;;;;;;;;;;;;;;13.11;65.89;94847.16;5085597;28;19924;-77
2021/05/31 03:07:24;;;;;;;;;;;;;;;13.09;66.30;94843.22;5084966;28;19927;-78
2021/05/31 03:09:49;;;;;;;;;;;;;;;13.10;66.53;94850.00;5087546;28;20007;-78
2021/05/31 03:12:15;;;;;;;;;;;;;;;13.11;66.24;94846.38;5087938;28;19920;-78
2021/05/31 03:14:40;;;;;;;;;;;;;;;13.11;66.53;94841.94;5085309;28;19951;-78
2021/05/31 03:17:05;;;;;;;;;;;;;;;13.13;67.05;94855.53;5085986;28;20046;-79
2021/05/31 03:19:30;;;;;;;;;;;;;;;13.14;66.97;94843.25;5084964;28;19921;-79
2021/05/31 03:21:56;;;;;;;;;;;;;;;13.09;66.46;94838.78;5084301;28;20387;-79
2021/05/31 03:24:21;;;;;;;;;;;;;;;13.11;66.56;94834.09;5067980;28;19920;-78
2021/05/31 03:26:46;;;;;;;;;;;;;;;13.08;66.13;94834.59;5066529;28;19928;-79
2021/05/31 03:29:12;;;;;;;;;;;;;;;13.09;66.15;94838.00;5089509;28;19920;-79
2021/05/31 03:31:37;;;;;;;;;;;;;;;13.13;65.84;94834.63;5088966;28;19929;-78
2021/05/31 03:34:04;;;;;;;;;;;;;;;13.15;65.94;94829.94;5064712;28;19924;-81
2021/05/31 03:36:29;;;;;;;;;;;;;;;13.15;65.84;94843.00;5069226;28;19927;-79
2021/05/31 03:38:55;;;;;;;;;;;;;;;13.16;65.94;94839.38;5087144;28;19924;-78
2021/05/31 03:41:20;;;;;;;;;;;;;;;13.18;65.24;94837.34;5066341;28;19920;-78
2021/05/31 03:43:45;;;;;;;;;;;;;;;13.14;65.33;94843.25;5069899;28;19916;-79
2021/05/31 03:46:11;;;;;;;;;;;;;;;13.09;65.39;94844.00;5096120;23;20319;-80
2021/05/31 03:48:36;;;;;;;;;;;;;;;13.04;65.51;94849.19;5132512;22;19987;-80
2021/05/31 03:51:11;;;;;;;;;;;;;;;13.08;65.56;94847.66;5083775;28;20314;-80
2021/05/31 03:53:37;;;;;;;;;;;;;;;13.10;66.07;94850.81;5078376;28;19924;-79
2021/05/31 03:56:02;;;;;;;;;;;;;;;13.07;65.70;94853.91;5091282;28;19920;-80
2021/05/31 03:58:28;;;;;;;;;;;;;;;13.06;65.69;94844.50;5074222;28;19946;-80
2021/05/31 04:00:53;;;;;;;;;;;;;;;13.04;66.45;94846.56;5074722;28;20217;-80
2021/05/31 04:03:19;;;;;;;;;;;;;;;13.13;66.15;94845.09;5076274;28;20387;-79
2021/05/31 04:05:55;;;;;;;;;;;;;;;13.21;65.74;94847.28;5072974;28;20400;-80
2021/05/31 04:13:50;;;;;;;;;;;;;;;13.59;64.86;94855.19;5081946;28;19930;-79
2021/05/31 04:16:16;;;;;;;;;;;;;;;13.76;63.74;94855.84;5083606;28;19928;-79
2021/05/31 04:18:41;;;;;;;;;;;;;;;13.84;62.98;94859.84;5087569;28;19924;-80
2021/05/31 04:21:11;;;;;;;;;;;;;;;13.94;62.87;94854.66;5086545;28;19927;-80
2021/05/31 04:23:48;;;;;;;;;;;;;;;14.11;62.06;94850.06;5088249;28;19924;-80
2021/05/31 04:26:13;;;;;;;;;;;;;;;14.41;60.84;94845.00;5071174;28;19924;-79
2021/05/31 04:28:41;;;;;;;;;;;;;;;14.82;60.06;94847.06;5088497;28;20006;-79
2021/05/31 04:31:06;;;;;;;;;;;;;;;15.65;57.67;94849.59;5067329;28;19904;-80
2021/05/31 04:33:31;;;;;;;;;;;;;;;17.29;51.86;94836.50;5065783;28;19928;-80
2021/05/31 04:35:57;;;;;;;;;;;;;;;19.19;47.23;94832.53;5083440;28;19919;-78
2021/05/31 04:38:22;;;;;;;;;;;;;;;20.37;43.58;94834.91;5107072;28;19928;-79
2021/05/31 04:40:47;;;;;;;;;;;;;;;21.08;41.75;94826.66;5089164;28;19931;-80
2021/05/31 04:43:13;;;;;;;;;;;;;;;22.13;39.42;94832.47;5086347;28;19931;-80
2021/05/31 04:45:38;;;;;;;;;;;;;;;22.56;38.10;94821.28;5086374;28;19924;-80
2021/05/31 04:48:03;;;;;;;;;;;;;;;22.66;37.52;94829.75;5089303;28;19924;-79
2021/05/31 04:50:29;;;;;;;;;;;;;;;23.52;36.03;94831.00;5065184;28;20052;-79
2021/05/31 04:52:54;;;;;;;;;;;;;;;24.81;33.73;94833.38;5083748;28;19919;-77
2021/05/31 04:55:19;;;;;;;;;;;;;;;25.19;33.21;94826.44;5085689;28;19921;-79
2021/05/31 04:57:45;;;;;;;;;;;;;;;24.95;32.80;94835.03;5084359;28;19955;-77
2021/05/31 05:00:10;;;;;;;;;;;;;;;24.11;33.35;94833.94;5082477;28;19931;-77
2021/05/31 05:02:35;;;;;;;;;;;;;;;23.21;35.22;94821.28;5082023;28;19943;-78
2021/05/31 05:05:01;;;;;;;;;;;;;;;23.10;36.27;94825.31;5081648;28;19920;-78
2021/05/31 05:07:26;;;;;;;;;;;;;;;23.90;35.24;94821.28;5082719;22;19982;-78
2021/05/31 05:09:51;;;;;;;;;;;;;;;25.92;31.61;94829.50;5073263;28;20338;-78
2021/05/31 05:12:16;;;;;;;;;;;;;;;27.68;28.36;94818.66;5072475;28;19920;-78
2021/05/31 05:14:43;;;;;;;;;;;;;;;27.89;27.85;94819.22;5073583;28;19925;-78
2021/05/31 05:17:11;;;;;;;;;;;;;;;28.00;26.58;94824.88;5076481;28;19924;-81
2021/05/31 05:19:37;;;;;;;;;;;;;;;27.81;27.45;94823.59;5066555;28;20007;-79
2021/05/31 05:22:02;;;;;;;;;;;;;;;28.10;26.65;94829.69;5086255;28;19924;-79
2021/05/31 05:24:27;;;;;;;;;;;;;;;28.54;26.36;94832.38;5086565;28;19992;-79
2021/05/31 05:26:53;;;;;;;;;;;;;;;29.14;25.09;94823.09;5079341;28;19924;-80
2021/05/31 05:29:19;;;;;;;;;;;;;;;28.60;25.33;94831.75;5074891;28;19921;-80
2021/05/31 05:31:44;;;;;;;;;;;;;;;27.38;26.93;94831.50;5074173;28;20484;-81
2021/05/31 05:34:10;;;;;;;;;;;;;;;26.49;28.90;94828.75;5075305;28;19948;-81
2021/05/31 05:46:48;;;;;;;;;;;;;;;26.65;28.84;94832.31;5073871;28;19924;-81
2021/05/31 05:49:13;;;;;;;;;;;;;;;28.76;25.53;94834.41;5071680;28;20320;-81
2021/05/31 05:51:39;;;;;;;;;;;;;;;29.27;24.52;94837.91;5073523;28;20003;-79
2021/05/31 05:54:04;;;;;;;;;;;;;;;28.85;25.40;94839.59;5070524;28;19970;-77
2021/05/31 05:56:30;;;;;;;;;;;;;;;29.03;25.17;94843.50;5071862;28;20004;-77
2021/05/31 05:58:56;;;;;;;;;;;;;;;28.62;25.21;94834.84;5070911;28;19935;-76
2021/05/31 06:01:25;;;;;;;;;;;;;;;28.48;25.90;94829.19;5072479;28;19920;-78
2021/05/31 06:03:52;;;;;;;;;;;;;;;27.11;27.43;94838.34;5071706;28;19920;-79
2021/05/31 06:06:21;;;;;;;;;;;;;;;26.33;29.07;94840.03;5080595;28;21618;-76
2021/05/31 06:08:47;;;;;;;;;;;;;;;25.46;30.54;94844.56;5079555;28;19981;-77
2021/05/31 06:11:12;;;;;;;;;;;;;;;24.46;32.08;94840.72;5069837;28;19925;-77
2021/05/31 06:13:40;;;;;;;;;;;;;;;23.82;33.14;94840.69;5070903;28;19925;-77
2021/05/31 06:16:05;;;;;;;;;;;;;;;22.82;35.11;94839.94;5069795;28;19925;-78
2021/05/31 06:18:31;;;;;;;;;;;;;;;22.38;35.91;94837.09;5072958;28;19993;-78
2021/05/31 06:20:59;;;;;;;;;;;;;;;22.29;35.59;94833.66;5073979;28;20612;-78
2021/05/31 06:23:24;;;;;;;;;;;;;;;23.39;32.99;94829.25;5072729;28;19925;-78
2021/05/31 06:25:50;;;;;;;;;;;;;;;25.13;30.51;94823.97;5073241;28;20009;-78
2021/05/31 06:28:15;;;;;;;;;;;;;;;26.39;27.90;94813.97;5072871;28;19920;-78
2021/05/31 06:30:40;;;;;;;;;;;;;;;27.33;26.90;94808.47;5073062;28;19924;-78
2021/05/31 06:33:06;;;;;;;;;;;;;;;27.87;26.15;94815.34;5072189;28;19916;-78
2021/05/31 06:35:31;;;;;;;;;;;;;;;27.93;25.94;94817.41;5072860;28;19924;-78
2021/05/31 06:37:57;;;;;;;;;;;;;;;27.20;26.39;94817.66;5069380;28;19916;-78
2021/05/31 06:40:22;;;;;;;;;;;;;;;27.37;25.64;94804.03;5076757;28;20501;-77
2021/05/31 06:45:58;;;;;;;;;;;;;;;27.71;25.94;94812.63;5366489;22;19955;-77
2021/05/31 06:48:24;;;;;;;;;;;;;;;26.85;28.16;94812.78;5056743;28;19920;-77
2021/05/31 06:50:49;;;;;;;;;;;;;;;25.92;28.56;94816.16;5059365;28;19935;-76
2021/05/31 06:53:16;;;;;;;;;;;;;;;25.14;30.02;94809.56;5059899;28;19920;-77
2021/05/31 06:55:43;;;;;;;;;;;;;;;24.34;31.85;94823.88;5060547;28;19964;-77
2021/05/31 06:58:08;;;;;;;;;;;;;;;24.05;32.68;94827.19;5059776;28;19970;-78
2021/05/31 07:00:33;;;;;;;;;;;;;;;23.78;33.18;94813.22;5067235;28;19921;-79
2021/05/31 07:02:59;;;;;;;;;;;;;;;23.82;32.34;94823.97;5058804;28;19936;-81
2021/05/31 07:05:25;;;;;;;;;;;;;;;23.91;33.09;94822.84;5055372;28;19928;-78
2021/05/31 07:07:51;;;;;;;;;;;;;;;23.72;32.99;94817.09;5059944;28;19989;-82
2021/05/31 07:10:17;;;;;;;;;;;;;;;23.88;33.98;94815.50;5084919;28;19917;-79
2021/05/31 07:12:43;;;;;;;;;;;;;;;24.21;32.77;94822.94;5061488;28;19931;-79
2021/05/31 07:15:11;;;;;;;;;;;;;;;24.49;32.39;94820.69;5059617;28;20107;-78
2021/05/31 07:17:37;;;;;;;;;;;;;;;24.68;31.13;94814.97;5060696;28;19985;-78
2021/05/31 07:20:03;;;;;;;;;;;;;;;25.01;30.63;94815.91;5063364;28;20400;-78
2021/05/31 07:22:32;;;;;;;;;;;;;;;25.30;30.30;94801.78;5063779;28;19920;-77
2021/05/31 07:24:58;;;;;;;;;;;;;;;25.33;29.90;94800.34;5075204;28;19924;-78
2021/05/31 07:27:23;;;;;;;;;;;;;;;25.15;29.25;94810.34;5085577;28;19936;-78
2021/05/31 07:29:52;;;;;;;;;;;;;;;25.04;29.78;94809.94;5092109;28;20300;-78
2021/05/31 07:32:18;;;;;;;;;;;;;;;25.23;29.31;94814.06;5089974;28;20442;-78
2021/05/31 07:34:44;;;;;;;;;;;;;;;24.86;29.10;94803.13;5075804;28;19928;-79
2021/05/31 07:37:09;;;;;;;;;;;;;;;24.33;31.17;94804.50;5082318;28;19946;-78
2021/05/31 07:39:34;;;;;;;;;;;;;;;24.23;31.12;94802.13;5101419;28;19924;-78
2021/05/31 07:42:00;;;;;;;;;;;;;;;24.28;31.37;94806.53;5100325;28;20011;-78
2021/05/31 07:44:25;;;;;;;;;;;;;;;23.91;30.65;94806.91;5082713;28;19924;-78
2021/05/31 07:46:50;;;;;;;;;;;;;;;23.87;31.84;94798.03;5082690;28;19980;-79
2021/05/31 07:49:16;;;;;;;;;;;;;;;23.99;31.80;94802.69;5077838;28;19920;-78
2021/05/31 07:51:44;;;;;;;;;;;;;;;24.16;30.45;94791.22;5098053;28;20417;-80
2021/05/31 07:54:09;;;;;;;;;;;;;;;24.28;30.01;94799.31;5061392;28;20003;-80
2021/05/31 07:56:35;;;;;;;;;;;;;;;24.38;30.57;94793.66;5079554;28;19985;-79
2021/05/31 07:59:01;;;;;;;;;;;;;;;24.48;29.68;94788.00;5097744;28;19920;-79
2021/05/31 08:01:26;;;;;;;;;;;;;;;24.56;29.59;94783.75;5097967;28;19926;-79
2021/05/31 08:03:51;;;;;;;;;;;;;;;24.74;30.14;94781.78;5079975;28;20379;-79
2021/05/31 08:06:17;;;;;;;;;;;;;;;24.87;29.62;94780.75;5062897;28;19926;-79
2021/05/31 08:08:42;;;;;;;;;;;;;;;24.77;29.36;94781.94;5076909;28;20371;-80
2021/05/31 08:11:08;;;;;;;;;;;;;;;24.53;30.68;94776.41;5066904;28;19931;-78
2021/05/31 08:13:34;;;;;;;;;;;;;;;24.52;30.15;94772.19;5094112;28;20440;-77
2021/05/31 08:15:59;;;;;;;;;;;;;;;24.30;30.19;94783.88;5090429;28;19920;-80
2021/05/31 08:18:24;;;;;;;;;;;;;;;24.17;31.17;94782.16;5097382;28;19927;-78
2021/05/31 08:20:50;;;;;;;;;;;;;;;23.88;31.03;94778.34;5081200;28;20333;-77
2021/05/31 08:23:15;;;;;;;;;;;;;;;23.63;31.38;94779.97;5079393;28;19928;-79
2021/05/31 08:25:41;;;;;;;;;;;;;;;23.54;30.31;94781.03;5062395;28;19969;-79
2021/05/31 08:28:06;;;;;;;;;;;;;;;23.51;31.68;94784.31;5062154;28;19995;-79
2021/05/31 08:30:31;;;;;;;;;;;;;;;23.42;30.73;94780.88;5093829;28;19920;-77
2021/05/31 08:33:00;;;;;;;;;;;;;;;23.39;31.63;94776.19;5059827;28;19931;-77
2021/05/31 08:35:25;;;;;;;;;;;;;;;23.30;32.45;94769.03;5074916;28;20001;-78
2021/05/31 08:37:51;;;;;;;;;;;;;;;22.99;32.10;94784.31;5095830;28;20276;-78
2021/05/31 08:40:16;;;;;;;;;;;;;;;22.49;33.75;94776.69;5077025;28;19920;-78
2021/05/31 08:42:42;;;;;;;;;;;;;;;22.10;33.78;94772.94;5065448;28;19926;-78
2021/05/31 08:45:08;;;;;;;;;;;;;;;21.80;35.50;94778.97;5105460;28;19935;-78
2021/05/31 08:47:41;;;;;;;;;;;;;;;21.76;35.42;94778.81;5095067;28;19978;-79
2021/05/31 08:50:07;;;;;;;;;;;;;;;21.87;35.89;94779.34;5077690;28;19954;-79
2021/05/31 08:52:32;;;;;;;;;;;;;;;21.94;34.53;94778.91;5078006;28;19920;-79
2021/05/31 08:54:57;;;;;;;;;;;;;;;21.61;35.38;94775.75;5060439;28;19929;-80
2021/05/31 08:57:25;;;;;;;;;;;;;;;21.50;36.72;94776.00;5095134;28;20000;-80
2021/05/31 08:59:50;;;;;;;;;;;;;;;21.72;36.03;94774.44;5095605;28;19916;-80
2021/05/31 09:02:16;;;;;;;;;;;;;;;21.67;35.63;94777.97;5060004;28;19926;-79
2021/05/31 09:04:45;;;;;;;;;;;;;;;21.74;36.14;94766.97;5095351;28;19948;-79
2021/05/31 09:07:10;;;;;;;;;;;;;;;21.99;35.74;94774.28;5096339;28;19931;-79
2021/05/31 09:09:42;;;;;;;;;;;;;;;21.96;35.43;94769.56;5077438;28;19920;-78
2021/05/31 09:12:09;;;;;;;;;;;;;;;21.81;35.13;94764.69;5059320;28;19927;-78
2021/05/31 09:14:35;;;;;;;;;;;;;;;21.75;35.77;94763.22;5076321;28;19920;-78
2021/05/31 09:17:00;;;;;;;;;;;;;;;21.73;35.69;94763.53;5077980;28;19928;-78
2021/05/31 09:19:25;;;;;;;;;;;;;;;21.86;35.70;94764.53;5077676;28;19990;-78
2021/05/31 09:21:51;;;;;;;;;;;;;;;21.99;35.96;94766.34;5060623;28;20346;-80
2021/05/31 09:24:23;;;;;;;;;;;;;;;21.99;35.40;94761.03;5076375;28;19920;-80
2021/05/31 09:26:50;;;;;;;;;;;;;;;21.94;35.56;94760.38;5062122;28;20304;-80
2021/05/31 09:29:17;;;;;;;;;;;;;;;22.05;35.27;94757.19;5077166;28;20379;-79
2021/05/31 09:31:42;;;;;;;;;;;;;;;22.26;34.63;94751.34;5095716;28;19943;-78
2021/05/31 09:34:08;;;;;;;;;;;;;;;22.61;34.34;94750.34;5077459;28;19920;-78
2021/05/31 09:36:34;;;;;;;;;;;;;;;22.55;34.46;94751.59;5059924;28;19940;-79
2021/05/31 09:39:02;;;;;;;;;;;;;;;22.58;34.14;94745.66;5081956;28;19920;-78
2021/05/31 09:41:31;;;;;;;;;;;;;;;22.59;34.22;94741.16;5103139;28;19930;-77
2021/05/31 09:43:58;;;;;;;;;;;;;;;22.53;33.62;94743.16;5086331;28;19920;-79
2021/05/31 09:46:42;;;;;;;;;;;;;;;22.47;33.43;94739.13;5064905;28;20053;-80
2021/05/31 09:49:13;;;;;;;;;;;;;;;22.58;34.59;94736.94;5094659;28;19966;-79
2021/05/31 09:52:00;;;;;;;;;;;;;;;22.10;33.19;94733.22;5076111;28;19919;-77
2021/05/31 09:54:29;;;;;;;;;;;;;;;22.01;34.28;94732.38;5093568;28;19943;-79
2021/05/31 09:56:54;;;;;;;;;;;;;;;22.23;33.29;94728.13;5075091;28;19920;-80
2021/05/31 09:59:22;;;;;;;;;;;;;;;22.32;33.76;94731.59;5096808;28;19916;-80
2021/05/31 10:01:48;;;;;;;;;;;;;;;22.35;32.75;94728.31;5102470;28;20326;-80
2021/05/31 10:09:51;;;;;;;;;;;;;;;22.62;32.96;94722.00;5012075;28;19961;-78
2021/05/31 10:12:16;;;;;;;;;;;;;;;22.72;33.44;94717.16;5094585;22;20326;-78
2021/05/31 10:14:44;;;;;;;;;;;;;;;22.88;32.50;94711.44;5080183;28;19924;-78
2021/05/31 10:17:13;;;;;;;;;;;;;;;22.76;32.18;94710.16;5079176;28;19920;-78
2021/05/31 10:19:39;;;;;;;;;;;;;;;22.62;32.04;94709.53;5067703;28;19920;-85
2021/05/31 10:22:04;;;;;;;;;;;;;;;22.68;32.23;94710.94;5072737;28;19920;-80
2021/05/31 10:24:29;;;;;;;;;;;;;;;22.89;32.08;94718.31;5070449;28;19916;-82
2021/05/31 10:26:58;;;;;;;;;;;;;;;22.87;31.73;94715.19;5072391;28;19986;-81
2021/05/31 10:29:23;;;;;;;;;;;;;;;23.05;31.75;94703.47;5070573;28;19920;-81
2021/05/31 10:31:48;;;;;;;;;;;;;;;23.09;30.77;94700.97;5067290;28;20007;-81
2021/05/31 10:34:20;;;;;;;;;;;;;;;23.07;31.02;94701.28;5089096;28;19923;-80
2021/05/31 10:36:49;;;;;;;;;;;;;;;22.96;31.24;94703.50;5090267;28;19925;-81
2021/05/31 10:39:20;;;;;;;;;;;;;;;22.85;31.54;94696.16;5086417;28;20079;-80
2021/05/31 10:41:45;;;;;;;;;;;;;;;22.97;31.36;94694.44;5070910;28;19935;-81
2021/05/31 10:44:15;;;;;;;;;;;;;;;22.94;30.01;94683.66;5065982;28;19920;-81
2021/05/31 10:46:50;;;;;;;;;;;;;;;22.72;30.45;94676.63;5069761;28;19920;-81
2021/05/31 10:49:16;;;;;;;;;;;;;;;22.76;31.66;94675.69;5068572;28;19955;-81
2021/05/31 10:51:42;;;;;;;;;;;;;;;22.84;31.38;94673.38;5090724;28;19924;-80
2021/05/31 10:54:11;;;;;;;;;;;;;;;23.02;31.49;94683.69;5086626;28;19955;-80
2021/05/31 10:56:36;;;;;;;;;;;;;;;22.86;30.34;94676.50;5088104;28;19943;-80
2021/05/31 10:59:01;;;;;;;;;;;;;;;22.60;30.36;94679.09;5069401;28;19916;-80
2021/05/31 11:01:27;;;;;;;;;;;;;;;22.76;31.53;94677.56;5071076;28;19920;-80
2021/05/31 11:04:00;;;;;;;;;;;;;;;23.04;31.44;94680.72;5087017;28;19916;-80
2021/05/31 11:06:28;;;;;;;;;;;;;;;23.09;31.29;94683.19;5084239;28;19928;-80
2021/05/31 11:08:54;;;;;;;;;;;;;;;23.15;29.76;94674.00;5088288;28;19916;-81
2021/05/31 11:11:29;;;;;;;;;;;;;;;23.11;30.47;94667.00;5067646;28;19924;-80
2021/05/31 11:13:55;;;;;;;;;;;;;;;22.85;30.05;94674.94;5053265;28;19920;-81
2021/05/31 11:16:20;;;;;;;;;;;;;;;22.55;31.02;94676.59;5078817;28;19916;-80
2021/05/31 11:18:46;;;;;;;;;;;;;;;22.62;31.22;94666.34;5068683;28;19920;-80
2021/05/31 11:21:30;;;;;;;;;;;;;;;22.82;31.89;94662.28;5068652;28;19916;-80
2021/05/31 11:24:07;;;;;;;;;;;;;;;22.92;31.79;94665.41;5085801;28;19946;-80
2021/05/31 11:26:33;;;;;;;;;;;;;;;22.93;30.40;94666.97;5087213;28;19916;-81
2021/05/31 11:28:59;;;;;;;;;;;;;;;22.65;30.48;94665.72;5090111;28;20011;-81
2021/05/31 11:31:25;;;;;;;;;;;;;;;22.59;31.91;94657.13;5065532;28;19959;-76
2021/05/31 11:33:53;;;;;;;;;;;;;;;22.45;33.29;94651.19;5081309;28;19924;-76
2021/05/31 11:36:45;;;;;;;;;;;;;;;21.92;33.32;94665.38;5076743;28;20027;-76
2021/05/31 11:39:10;;;;;;;;;;;;;;;20.70;35.66;94668.38;5076047;28;19968;-78
2021/05/31 11:41:38;;;;;;;;;;;;;;;19.95;38.46;94682.81;5083032;28;20040;-76
2021/05/31 11:44:05;;;;;;;;;;;;;;;19.18;39.85;94683.34;5063443;28;19924;-76
2021/05/31 11:46:30;;;;;;;;;;;;;;;18.44;38.70;94684.94;5080215;28;19959;-76
2021/05/31 11:48:59;;;;;;;;;;;;;;;17.79;41.37;94684.66;5097408;28;19921;-76
2021/05/31 11:51:25;;;;;;;;;;;;;;;17.48;43.29;94672.84;5108014;28;19935;-76
2021/05/31 11:53:50;;;;;;;;;;;;;;;16.68;43.04;94671.41;5091753;28;19920;-76
2021/05/31 11:56:15;;;;;;;;;;;;;;;16.26;43.14;94673.72;5062804;28;20295;-77
2021/05/31 11:58:41;;;;;;;;;;;;;;;16.34;44.68;94673.94;5071716;28;19927;-78
2021/05/31 12:01:07;;;;;;;;;;;;;;;16.43;44.00;94679.38;5063409;28;20391;-78
2021/05/31 12:03:33;;;;;;;;;;;;;;;16.67;44.05;94669.84;5063298;28;19931;-78
2021/05/31 12:05:58;;;;;;;;;;;;;;;16.42;42.14;94675.19;5063870;28;19924;-78
2021/05/31 12:08:23;;;;;;;;;;;;;;;16.42;41.72;94667.31;5082788;28;20308;-78
2021/05/31 12:10:49;;;;;;;;;;;;;;;16.67;42.48;94669.84;5062307;28;19970;-78
2021/05/31 12:13:14;;;;;;;;;;;;;;;16.72;42.63;94669.78;5046778;28;20379;-77
2021/05/31 12:15:40;;;;;;;;;;;;;;;16.95;41.99;94664.91;5062843;28;19920;-78
2021/05/31 12:18:12;;;;;;;;;;;;;;;16.92;42.92;94666.25;5063396;28;19989;-77
2021/05/31 12:20:38;;;;;;;;;;;;;;;16.65;43.12;94661.41;5065157;28;19920;-78
2021/05/31 12:23:04;;;;;;;;;;;;;;;17.02;42.93;94666.16;5063936;28;21007;-78
2021/05/31 12:28:04;;;;;;;;;;;;;;;17.52;40.83;94668.59;5502361;22;19928;-76
2021/05/31 12:30:30;;;;;;;;;;;;;;;17.39;38.79;94665.56;5050233;28;20396;-76
2021/05/31 12:32:55;;;;;;;;;;;;;;;17.39;39.88;94662.94;5056163;28;19929;-76
2021/05/31 12:35:20;;;;;;;;;;;;;;;17.09;40.97;94661.38;5049052;28;19920;-77
2021/05/31 12:37:52;;;;;;;;;;;;;;;17.51;41.38;94659.94;5048044;28;19928;-77
2021/05/31 12:40:18;;;;;;;;;;;;;;;17.67;40.07;94660.56;5033948;28;19979;-77
2021/05/31 12:42:46;;;;;;;;;;;;;;;17.55;40.92;94657.53;5032753;28;20359;-76
2021/05/31 12:45:12;;;;;;;;;;;;;;;16.87;40.94;94662.88;5032672;28;19923;-76
2021/05/31 12:47:38;;;;;;;;;;;;;;;16.75;43.82;94663.22;5051084;28;20019;-76
2021/05/31 12:50:04;;;;;;;;;;;;;;;16.60;43.35;94658.84;5032623;28;19921;-76
2021/05/31 12:52:30;;;;;;;;;;;;;;;16.49;44.53;94662.56;5032490;28;19925;-76
2021/05/31 12:54:58;;;;;;;;;;;;;;;16.27;45.70;94651.66;5033286;28;19944;-76
2021/05/31 12:57:23;;;;;;;;;;;;;;;16.74;43.56;94649.28;5046876;28;20019;-76
2021/05/31 12:59:49;;;;;;;;;;;;;;;17.12;43.33;94644.28;5050406;28;20509;-77
2021/05/31 13:02:18;;;;;;;;;;;;;;;17.45;41.77;94640.03;5050320;28;19921;-77
2021/05/31 13:04:43;;;;;;;;;;;;;;;17.62;41.62;94639.59;5049415;28;19921;-76
2021/05/31 13:09:40;;;;;;;;;;;;;;;17.11;42.02;94642.72;5192435;22;19993;-77
2021/05/31 13:12:07;;;;;;;;;;;;;;;17.28;42.49;94647.56;5050641;28;19924;-77
2021/05/31 13:14:32;;;;;;;;;;;;;;;17.75;40.61;94641.59;5094271;22;19924;-78
2021/05/31 13:16:59;;;;;;;;;;;;;;;18.00;38.50;94649.16;5070596;28;19925;-78
2021/05/31 13:19:24;;;;;;;;;;;;;;;18.06;38.45;94642.00;5070316;28;20311;-77